sensor_id;sensor_type;location;lat;lon;timestamp;P1;durP1;ratioP1;P2;durP2;ratioP2
27618;SDS011;15039;50.830;4.730;2024-01-25T00:02:09;37.28;;;7.68;;
27618;SDS011;15039;50.830;4.730;2024-01-25T00:04:36;29.98;;;6.53;;
27618;SDS011;15039;50.830;4.730;2024-01-25T00:07:03;25.90;;;6.40;;
27618;SDS011;15039;50.830;4.730;2024-01-25T00:09:29;38.65;;;6.93;;
27618;SDS011;15039;50.830;4.730;2024-01-25T00:11:56;31.48;;;6.65;;
27618;SDS011;15039;50.830;4.730;2024-01-25T00:14:21;35.42;;;7.30;;
27618;SDS011;15039;50.830;4.730;2024-01-25T00:16:47;34.75;;;7.85;;
27618;SDS011;15039;50.830;4.730;2024-01-25T00:19:13;27.75;;;6.28;;
27618;SDS011;15039;50.830;4.730;2024-01-25T00:21:42;30.13;;;6.20;;
27618;SDS011;15039;50.830;4.730;2024-01-25T00:24:08;38.97;;;7.75;;
27618;SDS011;15039;50.830;4.730;2024-01-25T00:26:36;34.40;;;7.47;;
27618;SDS011;15039;50.830;4.730;2024-01-25T00:29:02;39.03;;;6.65;;
27618;SDS011;15039;50.830;4.730;2024-01-25T00:31:28;30.50;;;7.15;;
27618;SDS011;15039;50.830;4.730;2024-01-25T00:33:54;31.30;;;6.75;;
27618;SDS011;15039;50.830;4.730;2024-01-25T00:36:22;32.80;;;7.07;;
27618;SDS011;15039;50.830;4.730;2024-01-25T00:38:48;37.25;;;7.43;;
27618;SDS011;15039;50.830;4.730;2024-01-25T00:41:17;37.58;;;6.85;;
27618;SDS011;15039;50.830;4.730;2024-01-25T00:43:50;38.10;;;7.65;;
27618;SDS011;15039;50.830;4.730;2024-01-25T00:46:17;35.05;;;7.18;;
27618;SDS011;15039;50.830;4.730;2024-01-25T00:48:43;37.30;;;7.75;;
27618;SDS011;15039;50.830;4.730;2024-01-25T00:51:12;31.02;;;7.70;;
27618;SDS011;15039;50.830;4.730;2024-01-25T00:53:41;28.40;;;7.10;;
27618;SDS011;15039;50.830;4.730;2024-01-25T00:56:07;42.30;;;8.80;;
27618;SDS011;15039;50.830;4.730;2024-01-25T00:58:33;32.67;;;6.47;;
27618;SDS011;15039;50.830;4.730;2024-01-25T01:00:59;41.80;;;7.20;;
27618;SDS011;15039;50.830;4.730;2024-01-25T01:03:25;36.35;;;7.70;;
27618;SDS011;15039;50.830;4.730;2024-01-25T01:05:51;26.38;;;6.38;;
27618;SDS011;15039;50.830;4.730;2024-01-25T01:08:17;30.77;;;7.00;;
27618;SDS011;15039;50.830;4.730;2024-01-25T01:10:43;38.72;;;7.70;;
27618;SDS011;15039;50.830;4.730;2024-01-25T01:13:09;30.30;;;6.07;;
27618;SDS011;15039;50.830;4.730;2024-01-25T01:15:34;34.40;;;7.07;;
27618;SDS011;15039;50.830;4.730;2024-01-25T01:18:00;37.55;;;6.88;;
27618;SDS011;15039;50.830;4.730;2024-01-25T01:20:25;38.22;;;7.00;;
27618;SDS011;15039;50.830;4.730;2024-01-25T01:22:51;35.35;;;5.75;;
27618;SDS011;15039;50.830;4.730;2024-01-25T01:25:17;36.40;;;6.60;;
27618;SDS011;15039;50.830;4.730;2024-01-25T01:27:43;39.47;;;6.88;;
27618;SDS011;15039;50.830;4.730;2024-01-25T01:30:09;30.75;;;6.70;;
27618;SDS011;15039;50.830;4.730;2024-01-25T01:32:35;31.83;;;6.78;;
27618;SDS011;15039;50.830;4.730;2024-01-25T01:35:01;31.60;;;6.30;;
27618;SDS011;15039;50.830;4.730;2024-01-25T01:37:26;38.58;;;8.93;;
27618;SDS011;15039;50.830;4.730;2024-01-25T01:39:52;36.00;;;7.35;;
27618;SDS011;15039;50.830;4.730;2024-01-25T01:42:20;35.65;;;6.93;;
27618;SDS011;15039;50.830;4.730;2024-01-25T01:44:47;31.90;;;7.43;;
27618;SDS011;15039;50.830;4.730;2024-01-25T01:47:13;31.83;;;6.65;;
27618;SDS011;15039;50.830;4.730;2024-01-25T01:49:38;33.92;;;6.97;;
27618;SDS011;15039;50.830;4.730;2024-01-25T01:52:04;39.72;;;6.25;;
27618;SDS011;15039;50.830;4.730;2024-01-25T01:54:31;38.40;;;6.82;;
27618;SDS011;15039;50.830;4.730;2024-01-25T01:56:57;38.33;;;6.75;;
27618;SDS011;15039;50.830;4.730;2024-01-25T01:59:23;32.63;;;6.93;;
27618;SDS011;15039;50.830;4.730;2024-01-25T02:01:50;38.63;;;7.45;;
27618;SDS011;15039;50.830;4.730;2024-01-25T02:04:17;43.50;;;7.50;;
27618;SDS011;15039;50.830;4.730;2024-01-25T02:06:42;29.80;;;7.10;;
27618;SDS011;15039;50.830;4.730;2024-01-25T02:09:09;34.83;;;5.93;;
27618;SDS011;15039;50.830;4.730;2024-01-25T02:11:35;37.28;;;7.70;;
27618;SDS011;15039;50.830;4.730;2024-01-25T02:14:00;39.63;;;7.25;;
27618;SDS011;15039;50.830;4.730;2024-01-25T02:16:26;34.50;;;6.85;;
27618;SDS011;15039;50.830;4.730;2024-01-25T02:18:51;37.13;;;6.93;;
27618;SDS011;15039;50.830;4.730;2024-01-25T02:21:19;42.92;;;7.97;;
27618;SDS011;15039;50.830;4.730;2024-01-25T02:23:45;40.13;;;7.18;;
27618;SDS011;15039;50.830;4.730;2024-01-25T02:26:10;30.90;;;7.00;;
27618;SDS011;15039;50.830;4.730;2024-01-25T02:28:36;35.58;;;7.03;;
27618;SDS011;15039;50.830;4.730;2024-01-25T02:31:02;38.83;;;7.70;;
27618;SDS011;15039;50.830;4.730;2024-01-25T02:33:29;32.58;;;6.05;;
27618;SDS011;15039;50.830;4.730;2024-01-25T02:35:55;30.42;;;7.60;;
27618;SDS011;15039;50.830;4.730;2024-01-25T02:38:21;37.65;;;7.57;;
27618;SDS011;15039;50.830;4.730;2024-01-25T02:40:46;31.27;;;7.43;;
27618;SDS011;15039;50.830;4.730;2024-01-25T02:43:12;36.83;;;7.13;;
27618;SDS011;15039;50.830;4.730;2024-01-25T02:45:37;38.67;;;6.03;;
27618;SDS011;15039;50.830;4.730;2024-01-25T02:48:03;35.13;;;6.53;;
27618;SDS011;15039;50.830;4.730;2024-01-25T02:50:29;42.50;;;6.95;;
27618;SDS011;15039;50.830;4.730;2024-01-25T02:52:55;34.05;;;6.43;;
27618;SDS011;15039;50.830;4.730;2024-01-25T02:55:21;27.10;;;5.78;;
27618;SDS011;15039;50.830;4.730;2024-01-25T02:57:47;44.17;;;7.60;;
27618;SDS011;15039;50.830;4.730;2024-01-25T03:00:13;35.92;;;6.88;;
27618;SDS011;15039;50.830;4.730;2024-01-25T03:02:39;38.75;;;7.00;;
27618;SDS011;15039;50.830;4.730;2024-01-25T03:05:04;35.92;;;6.40;;
27618;SDS011;15039;50.830;4.730;2024-01-25T03:07:30;28.15;;;6.55;;
27618;SDS011;15039;50.830;4.730;2024-01-25T03:09:56;31.98;;;6.40;;
27618;SDS011;15039;50.830;4.730;2024-01-25T03:12:21;45.85;;;7.20;;
27618;SDS011;15039;50.830;4.730;2024-01-25T03:14:47;37.10;;;6.78;;
27618;SDS011;15039;50.830;4.730;2024-01-25T03:17:13;32.80;;;7.32;;
27618;SDS011;15039;50.830;4.730;2024-01-25T03:19:39;34.10;;;6.35;;
27618;SDS011;15039;50.830;4.730;2024-01-25T03:22:05;36.80;;;6.72;;
27618;SDS011;15039;50.830;4.730;2024-01-25T03:24:30;46.30;;;8.70;;
27618;SDS011;15039;50.830;4.730;2024-01-25T03:26:56;36.60;;;6.40;;
27618;SDS011;15039;50.830;4.730;2024-01-25T03:29:22;39.03;;;6.95;;
27618;SDS011;15039;50.830;4.730;2024-01-25T03:31:47;35.13;;;6.05;;
27618;SDS011;15039;50.830;4.730;2024-01-25T03:34:13;35.05;;;6.05;;
27618;SDS011;15039;50.830;4.730;2024-01-25T03:36:39;35.30;;;7.00;;
27618;SDS011;15039;50.830;4.730;2024-01-25T03:39:05;46.22;;;6.93;;
27618;SDS011;15039;50.830;4.730;2024-01-25T03:41:32;38.67;;;6.65;;
27618;SDS011;15039;50.830;4.730;2024-01-25T03:43:58;42.55;;;6.43;;
27618;SDS011;15039;50.830;4.730;2024-01-25T03:46:29;35.65;;;5.80;;
27618;SDS011;15039;50.830;4.730;2024-01-25T03:48:54;39.97;;;7.32;;
27618;SDS011;15039;50.830;4.730;2024-01-25T03:51:20;37.28;;;6.75;;
27618;SDS011;15039;50.830;4.730;2024-01-25T03:53:46;41.35;;;6.63;;
27618;SDS011;15039;50.830;4.730;2024-01-25T03:56:11;34.80;;;6.10;;
27618;SDS011;15039;50.830;4.730;2024-01-25T03:58:44;36.00;;;6.68;;
27618;SDS011;15039;50.830;4.730;2024-01-25T04:01:11;35.80;;;6.97;;
27618;SDS011;15039;50.830;4.730;2024-01-25T04:03:37;30.55;;;6.07;;
27618;SDS011;15039;50.830;4.730;2024-01-25T04:06:02;37.65;;;6.15;;
27618;SDS011;15039;50.830;4.730;2024-01-25T04:08:29;28.13;;;5.75;;
27618;SDS011;15039;50.830;4.730;2024-01-25T04:10:55;37.13;;;6.32;;
27618;SDS011;15039;50.830;4.730;2024-01-25T04:13:21;37.85;;;7.22;;
27618;SDS011;15039;50.830;4.730;2024-01-25T04:15:48;42.42;;;6.28;;
27618;SDS011;15039;50.830;4.730;2024-01-25T04:18:13;33.53;;;6.78;;
27618;SDS011;15039;50.830;4.730;2024-01-25T04:20:41;40.20;;;6.40;;
27618;SDS011;15039;50.830;4.730;2024-01-25T04:23:07;39.28;;;6.85;;
27618;SDS011;15039;50.830;4.730;2024-01-25T04:25:32;45.40;;;6.80;;
27618;SDS011;15039;50.830;4.730;2024-01-25T04:27:58;42.42;;;7.00;;
27618;SDS011;15039;50.830;4.730;2024-01-25T04:30:23;32.97;;;7.03;;
27618;SDS011;15039;50.830;4.730;2024-01-25T04:32:49;44.85;;;6.47;;
27618;SDS011;15039;50.830;4.730;2024-01-25T04:35:15;38.03;;;5.93;;
27618;SDS011;15039;50.830;4.730;2024-01-25T04:37:40;32.40;;;5.78;;
27618;SDS011;15039;50.830;4.730;2024-01-25T04:40:06;40.92;;;6.40;;
27618;SDS011;15039;50.830;4.730;2024-01-25T04:42:32;36.97;;;6.43;;
27618;SDS011;15039;50.830;4.730;2024-01-25T04:44:58;36.42;;;6.10;;
27618;SDS011;15039;50.830;4.730;2024-01-25T04:47:24;40.83;;;6.35;;
27618;SDS011;15039;50.830;4.730;2024-01-25T04:49:49;31.73;;;6.40;;
27618;SDS011;15039;50.830;4.730;2024-01-25T04:52:15;44.95;;;6.97;;
27618;SDS011;15039;50.830;4.730;2024-01-25T04:54:41;36.97;;;7.18;;
27618;SDS011;15039;50.830;4.730;2024-01-25T04:57:07;36.63;;;6.68;;
27618;SDS011;15039;50.830;4.730;2024-01-25T04:59:32;48.85;;;7.30;;
27618;SDS011;15039;50.830;4.730;2024-01-25T05:01:59;39.35;;;7.45;;
27618;SDS011;15039;50.830;4.730;2024-01-25T05:04:24;45.08;;;7.25;;
27618;SDS011;15039;50.830;4.730;2024-01-25T05:06:50;36.50;;;6.10;;
27618;SDS011;15039;50.830;4.730;2024-01-25T05:09:16;38.25;;;6.43;;
27618;SDS011;15039;50.830;4.730;2024-01-25T05:11:41;36.88;;;6.55;;
27618;SDS011;15039;50.830;4.730;2024-01-25T05:14:07;42.70;;;6.45;;
27618;SDS011;15039;50.830;4.730;2024-01-25T05:16:33;46.97;;;6.93;;
27618;SDS011;15039;50.830;4.730;2024-01-25T05:19:00;34.83;;;6.80;;
27618;SDS011;15039;50.830;4.730;2024-01-25T05:21:25;46.97;;;6.85;;
27618;SDS011;15039;50.830;4.730;2024-01-25T05:23:51;39.35;;;6.82;;
27618;SDS011;15039;50.830;4.730;2024-01-25T05:26:17;42.00;;;6.32;;
27618;SDS011;15039;50.830;4.730;2024-01-25T05:28:43;40.58;;;6.82;;
27618;SDS011;15039;50.830;4.730;2024-01-25T05:31:09;43.33;;;7.35;;
27618;SDS011;15039;50.830;4.730;2024-01-25T05:33:41;36.90;;;6.88;;
27618;SDS011;15039;50.830;4.730;2024-01-25T05:36:07;46.55;;;6.40;;
27618;SDS011;15039;50.830;4.730;2024-01-25T05:38:34;41.60;;;6.65;;
27618;SDS011;15039;50.830;4.730;2024-01-25T05:40:59;43.10;;;7.45;;
27618;SDS011;15039;50.830;4.730;2024-01-25T05:43:25;38.75;;;7.50;;
27618;SDS011;15039;50.830;4.730;2024-01-25T05:45:51;45.83;;;6.78;;
27618;SDS011;15039;50.830;4.730;2024-01-25T05:48:16;46.38;;;7.00;;
27618;SDS011;15039;50.830;4.730;2024-01-25T05:50:42;50.50;;;8.80;;
27618;SDS011;15039;50.830;4.730;2024-01-25T05:53:08;42.05;;;8.13;;
27618;SDS011;15039;50.830;4.730;2024-01-25T05:55:34;42.55;;;7.78;;
27618;SDS011;15039;50.830;4.730;2024-01-25T05:57:59;52.92;;;7.70;;
27618;SDS011;15039;50.830;4.730;2024-01-25T06:00:25;35.38;;;6.13;;
27618;SDS011;15039;50.830;4.730;2024-01-25T06:02:51;41.95;;;7.13;;
27618;SDS011;15039;50.830;4.730;2024-01-25T06:05:16;43.42;;;6.60;;
27618;SDS011;15039;50.830;4.730;2024-01-25T06:07:43;41.20;;;6.35;;
27618;SDS011;15039;50.830;4.730;2024-01-25T06:10:09;44.05;;;7.18;;
27618;SDS011;15039;50.830;4.730;2024-01-25T06:12:35;49.58;;;8.20;;
27618;SDS011;15039;50.830;4.730;2024-01-25T06:15:00;38.10;;;7.75;;
27618;SDS011;15039;50.830;4.730;2024-01-25T06:17:26;51.05;;;8.18;;
27618;SDS011;15039;50.830;4.730;2024-01-25T06:19:52;39.72;;;8.23;;
27618;SDS011;15039;50.830;4.730;2024-01-25T06:22:18;45.15;;;7.10;;
27618;SDS011;15039;50.830;4.730;2024-01-25T06:24:43;45.55;;;7.90;;
27618;SDS011;15039;50.830;4.730;2024-01-25T06:27:09;49.92;;;7.43;;
27618;SDS011;15039;50.830;4.730;2024-01-25T06:29:35;39.70;;;7.93;;
27618;SDS011;15039;50.830;4.730;2024-01-25T06:32:01;62.47;;;8.00;;
27618;SDS011;15039;50.830;4.730;2024-01-25T06:34:27;48.58;;;8.40;;
27618;SDS011;15039;50.830;4.730;2024-01-25T06:36:53;44.97;;;8.15;;
27618;SDS011;15039;50.830;4.730;2024-01-25T06:39:18;58.95;;;9.05;;
27618;SDS011;15039;50.830;4.730;2024-01-25T06:41:44;39.95;;;8.80;;
27618;SDS011;15039;50.830;4.730;2024-01-25T06:44:10;52.15;;;8.38;;
27618;SDS011;15039;50.830;4.730;2024-01-25T06:46:36;49.40;;;8.35;;
27618;SDS011;15039;50.830;4.730;2024-01-25T06:49:01;42.33;;;9.30;;
27618;SDS011;15039;50.830;4.730;2024-01-25T06:51:28;47.42;;;8.57;;
27618;SDS011;15039;50.830;4.730;2024-01-25T06:53:53;57.65;;;9.20;;
27618;SDS011;15039;50.830;4.730;2024-01-25T06:56:19;58.17;;;9.80;;
27618;SDS011;15039;50.830;4.730;2024-01-25T06:58:45;53.92;;;8.90;;
27618;SDS011;15039;50.830;4.730;2024-01-25T07:01:10;58.20;;;10.30;;
27618;SDS011;15039;50.830;4.730;2024-01-25T07:03:36;55.95;;;9.98;;
27618;SDS011;15039;50.830;4.730;2024-01-25T07:06:03;51.33;;;9.80;;
27618;SDS011;15039;50.830;4.730;2024-01-25T07:08:29;46.72;;;10.05;;
27618;SDS011;15039;50.830;4.730;2024-01-25T07:10:54;57.10;;;9.93;;
27618;SDS011;15039;50.830;4.730;2024-01-25T07:13:21;58.08;;;10.90;;
27618;SDS011;15039;50.830;4.730;2024-01-25T07:15:47;45.17;;;11.10;;
27618;SDS011;15039;50.830;4.730;2024-01-25T07:18:13;55.92;;;10.70;;
27618;SDS011;15039;50.830;4.730;2024-01-25T07:20:38;55.40;;;10.98;;
27618;SDS011;15039;50.830;4.730;2024-01-25T07:23:04;50.28;;;10.82;;
27618;SDS011;15039;50.830;4.730;2024-01-25T07:25:29;55.08;;;11.38;;
27618;SDS011;15039;50.830;4.730;2024-01-25T07:27:55;84.25;;;12.35;;
27618;SDS011;15039;50.830;4.730;2024-01-25T07:30:21;55.47;;;12.18;;
27618;SDS011;15039;50.830;4.730;2024-01-25T07:32:47;52.35;;;12.00;;
27618;SDS011;15039;50.830;4.730;2024-01-25T07:35:14;61.95;;;11.88;;
27618;SDS011;15039;50.830;4.730;2024-01-25T07:37:40;82.53;;;11.63;;
27618;SDS011;15039;50.830;4.730;2024-01-25T07:40:06;77.30;;;13.77;;
27618;SDS011;15039;50.830;4.730;2024-01-25T07:42:33;74.65;;;11.45;;
27618;SDS011;15039;50.830;4.730;2024-01-25T07:44:59;83.85;;;12.13;;
27618;SDS011;15039;50.830;4.730;2024-01-25T07:47:24;48.38;;;11.15;;
27618;SDS011;15039;50.830;4.730;2024-01-25T07:49:50;53.58;;;11.30;;
27618;SDS011;15039;50.830;4.730;2024-01-25T07:52:16;48.03;;;9.35;;
27618;SDS011;15039;50.830;4.730;2024-01-25T07:54:42;45.83;;;10.55;;
27618;SDS011;15039;50.830;4.730;2024-01-25T07:57:08;28.80;;;10.75;;
27618;SDS011;15039;50.830;4.730;2024-01-25T07:59:34;50.95;;;10.18;;
27618;SDS011;15039;50.830;4.730;2024-01-25T08:02:00;46.58;;;10.48;;
27618;SDS011;15039;50.830;4.730;2024-01-25T08:04:25;73.18;;;11.68;;
27618;SDS011;15039;50.830;4.730;2024-01-25T08:06:52;55.95;;;11.98;;
27618;SDS011;15039;50.830;4.730;2024-01-25T08:09:17;42.58;;;10.75;;
27618;SDS011;15039;50.830;4.730;2024-01-25T08:11:43;38.22;;;9.65;;
27618;SDS011;15039;50.830;4.730;2024-01-25T08:14:09;37.75;;;10.32;;
27618;SDS011;15039;50.830;4.730;2024-01-25T08:16:36;46.47;;;10.45;;
27618;SDS011;15039;50.830;4.730;2024-01-25T08:19:02;38.70;;;10.40;;
27618;SDS011;15039;50.830;4.730;2024-01-25T08:21:28;49.53;;;11.30;;
27618;SDS011;15039;50.830;4.730;2024-01-25T08:23:53;56.75;;;11.75;;
27618;SDS011;15039;50.830;4.730;2024-01-25T08:26:19;60.55;;;11.02;;
27618;SDS011;15039;50.830;4.730;2024-01-25T08:28:46;90.93;;;14.30;;
27618;SDS011;15039;50.830;4.730;2024-01-25T08:31:13;119.20;;;15.80;;
27618;SDS011;15039;50.830;4.730;2024-01-25T08:33:39;156.70;;;18.30;;
27618;SDS011;15039;50.830;4.730;2024-01-25T08:36:10;58.95;;;11.75;;
27618;SDS011;15039;50.830;4.730;2024-01-25T08:38:37;81.65;;;13.57;;
27618;SDS011;15039;50.830;4.730;2024-01-25T08:41:03;84.95;;;13.13;;
27618;SDS011;15039;50.830;4.730;2024-01-25T08:43:29;77.20;;;12.15;;
27618;SDS011;15039;50.830;4.730;2024-01-25T08:45:55;72.30;;;12.85;;
27618;SDS011;15039;50.830;4.730;2024-01-25T08:48:20;76.43;;;12.73;;
27618;SDS011;15039;50.830;4.730;2024-01-25T08:50:46;85.45;;;13.05;;
27618;SDS011;15039;50.830;4.730;2024-01-25T08:53:13;110.22;;;15.18;;
27618;SDS011;15039;50.830;4.730;2024-01-25T08:55:39;107.22;;;15.50;;
27618;SDS011;15039;50.830;4.730;2024-01-25T08:58:05;126.45;;;15.63;;
27618;SDS011;15039;50.830;4.730;2024-01-25T09:00:31;65.25;;;13.50;;
27618;SDS011;15039;50.830;4.730;2024-01-25T09:02:56;75.50;;;13.48;;
27618;SDS011;15039;50.830;4.730;2024-01-25T09:05:22;109.57;;;14.63;;
27618;SDS011;15039;50.830;4.730;2024-01-25T09:07:48;68.47;;;14.70;;
27618;SDS011;15039;50.830;4.730;2024-01-25T09:10:15;74.45;;;13.45;;
27618;SDS011;15039;50.830;4.730;2024-01-25T09:12:41;64.07;;;13.68;;
27618;SDS011;15039;50.830;4.730;2024-01-25T09:15:07;64.40;;;13.38;;
27618;SDS011;15039;50.830;4.730;2024-01-25T09:17:33;70.97;;;14.38;;
27618;SDS011;15039;50.830;4.730;2024-01-25T09:19:59;66.97;;;14.98;;
27618;SDS011;15039;50.830;4.730;2024-01-25T09:22:25;73.13;;;13.20;;
27618;SDS011;15039;50.830;4.730;2024-01-25T09:24:51;46.30;;;13.48;;
27618;SDS011;15039;50.830;4.730;2024-01-25T09:27:17;54.40;;;13.20;;
27618;SDS011;15039;50.830;4.730;2024-01-25T09:29:43;55.55;;;13.07;;
27618;SDS011;15039;50.830;4.730;2024-01-25T09:32:11;49.83;;;12.75;;
27618;SDS011;15039;50.830;4.730;2024-01-25T09:34:37;41.85;;;13.38;;
27618;SDS011;15039;50.830;4.730;2024-01-25T09:37:03;34.88;;;11.43;;
27618;SDS011;15039;50.830;4.730;2024-01-25T09:39:30;35.92;;;11.55;;
27618;SDS011;15039;50.830;4.730;2024-01-25T09:41:57;47.83;;;12.45;;
27618;SDS011;15039;50.830;4.730;2024-01-25T09:44:23;30.83;;;12.18;;
27618;SDS011;15039;50.830;4.730;2024-01-25T09:46:49;54.55;;;12.55;;
27618;SDS011;15039;50.830;4.730;2024-01-25T09:49:16;45.17;;;12.35;;
27618;SDS011;15039;50.830;4.730;2024-01-25T09:51:42;30.73;;;11.50;;
27618;SDS011;15039;50.830;4.730;2024-01-25T09:54:08;39.67;;;13.48;;
27618;SDS011;15039;50.830;4.730;2024-01-25T09:56:42;37.70;;;12.85;;
27618;SDS011;15039;50.830;4.730;2024-01-25T09:59:08;35.05;;;12.38;;
27618;SDS011;15039;50.830;4.730;2024-01-25T10:01:34;31.15;;;13.25;;
27618;SDS011;15039;50.830;4.730;2024-01-25T10:04:00;40.63;;;13.20;;
27618;SDS011;15039;50.830;4.730;2024-01-25T10:06:26;37.38;;;14.00;;
27618;SDS011;15039;50.830;4.730;2024-01-25T10:08:52;33.90;;;13.60;;
27618;SDS011;15039;50.830;4.730;2024-01-25T10:11:18;40.53;;;14.07;;
27618;SDS011;15039;50.830;4.730;2024-01-25T10:13:45;36.15;;;13.05;;
27618;SDS011;15039;50.830;4.730;2024-01-25T10:16:16;33.88;;;13.77;;
27618;SDS011;15039;50.830;4.730;2024-01-25T10:18:43;32.95;;;12.70;;
27618;SDS011;15039;50.830;4.730;2024-01-25T10:21:11;37.43;;;13.70;;
27618;SDS011;15039;50.830;4.730;2024-01-25T10:23:39;31.63;;;12.95;;
27618;SDS011;15039;50.830;4.730;2024-01-25T10:26:05;33.08;;;13.90;;
27618;SDS011;15039;50.830;4.730;2024-01-25T10:28:34;30.63;;;12.88;;
27618;SDS011;15039;50.830;4.730;2024-01-25T10:31:08;36.33;;;13.30;;
27618;SDS011;15039;50.830;4.730;2024-01-25T10:33:34;29.17;;;12.95;;
27618;SDS011;15039;50.830;4.730;2024-01-25T10:36:00;30.85;;;13.85;;
27618;SDS011;15039;50.830;4.730;2024-01-25T10:40:54;30.85;;;13.43;;
27618;SDS011;15039;50.830;4.730;2024-01-25T10:43:24;34.50;;;13.13;;
27618;SDS011;15039;50.830;4.730;2024-01-25T10:45:50;35.42;;;13.30;;
27618;SDS011;15039;50.830;4.730;2024-01-25T10:48:20;31.88;;;12.02;;
27618;SDS011;15039;50.830;4.730;2024-01-25T10:50:47;28.10;;;11.93;;
27618;SDS011;15039;50.830;4.730;2024-01-25T10:53:14;28.05;;;12.45;;
27618;SDS011;15039;50.830;4.730;2024-01-25T10:55:43;27.60;;;11.85;;
27618;SDS011;15039;50.830;4.730;2024-01-25T10:58:13;27.20;;;10.85;;
27618;SDS011;15039;50.830;4.730;2024-01-25T11:00:39;29.83;;;11.25;;
27618;SDS011;15039;50.830;4.730;2024-01-25T11:03:14;26.08;;;11.07;;
27618;SDS011;15039;50.830;4.730;2024-01-25T11:05:39;25.05;;;10.50;;
27618;SDS011;15039;50.830;4.730;2024-01-25T11:08:05;28.15;;;10.93;;
27618;SDS011;15039;50.830;4.730;2024-01-25T11:10:48;29.38;;;11.38;;
27618;SDS011;15039;50.830;4.730;2024-01-25T11:13:23;27.95;;;11.52;;
27618;SDS011;15039;50.830;4.730;2024-01-25T11:15:51;27.35;;;10.70;;
27618;SDS011;15039;50.830;4.730;2024-01-25T11:18:17;22.60;;;11.18;;
27618;SDS011;15039;50.830;4.730;2024-01-25T11:27:13;23.23;;;10.30;;
27618;SDS011;15039;50.830;4.730;2024-01-25T11:29:40;26.40;;;11.07;;
27618;SDS011;15039;50.830;4.730;2024-01-25T11:32:07;27.65;;;9.77;;
27618;SDS011;15039;50.830;4.730;2024-01-25T11:34:34;27.92;;;10.32;;
27618;SDS011;15039;50.830;4.730;2024-01-25T11:37:00;25.77;;;10.50;;
27618;SDS011;15039;50.830;4.730;2024-01-25T11:39:25;25.42;;;9.45;;
27618;SDS011;15039;50.830;4.730;2024-01-25T11:41:54;25.90;;;10.38;;
27618;SDS011;15039;50.830;4.730;2024-01-25T11:44:20;24.67;;;11.13;;
27618;SDS011;15039;50.830;4.730;2024-01-25T11:46:49;26.92;;;10.10;;
27618;SDS011;15039;50.830;4.730;2024-01-25T11:49:15;26.58;;;10.93;;
27618;SDS011;15039;50.830;4.730;2024-01-25T11:51:47;27.75;;;11.13;;
27618;SDS011;15039;50.830;4.730;2024-01-25T11:54:12;25.52;;;11.57;;
27618;SDS011;15039;50.830;4.730;2024-01-25T11:56:38;27.00;;;11.48;;
27618;SDS011;15039;50.830;4.730;2024-01-25T11:59:05;23.55;;;11.65;;
27618;SDS011;15039;50.830;4.730;2024-01-25T12:01:32;24.52;;;11.10;;
27618;SDS011;15039;50.830;4.730;2024-01-25T12:03:58;34.05;;;12.05;;
27618;SDS011;15039;50.830;4.730;2024-01-25T12:06:24;24.38;;;11.10;;
27618;SDS011;15039;50.830;4.730;2024-01-25T12:08:49;22.85;;;11.50;;
27618;SDS011;15039;50.830;4.730;2024-01-25T12:11:16;25.15;;;11.18;;
27618;SDS011;15039;50.830;4.730;2024-01-25T12:13:44;19.95;;;10.50;;
27618;SDS011;15039;50.830;4.730;2024-01-25T12:16:10;26.58;;;12.27;;
27618;SDS011;15039;50.830;4.730;2024-01-25T12:18:37;21.65;;;10.00;;
27618;SDS011;15039;50.830;4.730;2024-01-25T12:21:06;22.63;;;10.02;;
27618;SDS011;15039;50.830;4.730;2024-01-25T12:23:36;26.70;;;11.13;;
27618;SDS011;15039;50.830;4.730;2024-01-25T12:26:04;26.05;;;11.52;;
27618;SDS011;15039;50.830;4.730;2024-01-25T12:28:36;23.40;;;10.95;;
27618;SDS011;15039;50.830;4.730;2024-01-25T12:31:06;22.65;;;10.15;;
27618;SDS011;15039;50.830;4.730;2024-01-25T12:33:35;23.38;;;9.98;;
27618;SDS011;15039;50.830;4.730;2024-01-25T12:36:03;21.60;;;9.73;;
27618;SDS011;15039;50.830;4.730;2024-01-25T12:38:30;27.55;;;9.43;;
27618;SDS011;15039;50.830;4.730;2024-01-25T12:40:58;20.67;;;9.10;;
27618;SDS011;15039;50.830;4.730;2024-01-25T12:43:24;23.30;;;9.52;;
27618;SDS011;15039;50.830;4.730;2024-01-25T12:45:50;20.65;;;8.68;;
27618;SDS011;15039;50.830;4.730;2024-01-25T12:48:17;22.05;;;8.68;;
27618;SDS011;15039;50.830;4.730;2024-01-25T12:50:45;22.70;;;8.40;;
27618;SDS011;15039;50.830;4.730;2024-01-25T12:53:14;26.35;;;9.32;;
27618;SDS011;15039;50.830;4.730;2024-01-25T12:55:40;21.05;;;7.93;;
27618;SDS011;15039;50.830;4.730;2024-01-25T12:58:06;20.17;;;8.20;;
27618;SDS011;15039;50.830;4.730;2024-01-25T13:00:36;19.25;;;7.88;;
27618;SDS011;15039;50.830;4.730;2024-01-25T13:03:01;21.25;;;8.20;;
27618;SDS011;15039;50.830;4.730;2024-01-25T13:05:28;19.77;;;8.25;;
27618;SDS011;15039;50.830;4.730;2024-01-25T13:07:54;19.73;;;7.43;;
27618;SDS011;15039;50.830;4.730;2024-01-25T13:10:20;13.43;;;6.78;;
27618;SDS011;15039;50.830;4.730;2024-01-25T13:12:46;16.63;;;7.03;;
27618;SDS011;15039;50.830;4.730;2024-01-25T13:15:14;16.60;;;7.63;;
27618;SDS011;15039;50.830;4.730;2024-01-25T13:17:42;17.63;;;6.85;;
27618;SDS011;15039;50.830;4.730;2024-01-25T13:20:08;13.27;;;6.70;;
27618;SDS011;15039;50.830;4.730;2024-01-25T13:22:34;15.52;;;6.35;;
27618;SDS011;15039;50.830;4.730;2024-01-25T13:25:00;17.40;;;6.90;;
27618;SDS011;15039;50.830;4.730;2024-01-25T13:27:27;12.73;;;6.35;;
27618;SDS011;15039;50.830;4.730;2024-01-25T13:30:01;9.35;;;5.28;;
27618;SDS011;15039;50.830;4.730;2024-01-25T13:32:29;11.48;;;5.53;;
27618;SDS011;15039;50.830;4.730;2024-01-25T13:34:54;11.75;;;6.22;;
27618;SDS011;15039;50.830;4.730;2024-01-25T13:37:20;11.05;;;5.35;;
27618;SDS011;15039;50.830;4.730;2024-01-25T13:39:46;12.35;;;5.50;;
27618;SDS011;15039;50.830;4.730;2024-01-25T13:42:11;12.98;;;5.32;;
27618;SDS011;15039;50.830;4.730;2024-01-25T13:44:37;8.68;;;4.82;;
27618;SDS011;15039;50.830;4.730;2024-01-25T13:47:03;8.15;;;5.35;;
27618;SDS011;15039;50.830;4.730;2024-01-25T13:49:29;8.00;;;4.88;;
27618;SDS011;15039;50.830;4.730;2024-01-25T13:51:55;9.73;;;4.82;;
27618;SDS011;15039;50.830;4.730;2024-01-25T13:54:21;12.63;;;5.97;;
27618;SDS011;15039;50.830;4.730;2024-01-25T13:56:46;12.10;;;5.70;;
27618;SDS011;15039;50.830;4.730;2024-01-25T13:59:14;10.15;;;5.10;;
27618;SDS011;15039;50.830;4.730;2024-01-25T14:01:45;10.20;;;5.13;;
27618;SDS011;15039;50.830;4.730;2024-01-25T14:04:11;8.73;;;4.10;;
27618;SDS011;15039;50.830;4.730;2024-01-25T14:06:40;8.63;;;4.22;;
27618;SDS011;15039;50.830;4.730;2024-01-25T14:09:06;6.50;;;4.10;;
27618;SDS011;15039;50.830;4.730;2024-01-25T14:11:31;10.73;;;3.78;;
27618;SDS011;15039;50.830;4.730;2024-01-25T14:13:57;7.78;;;4.10;;
27618;SDS011;15039;50.830;4.730;2024-01-25T14:16:25;6.32;;;3.85;;
27618;SDS011;15039;50.830;4.730;2024-01-25T14:18:51;8.48;;;3.75;;
27618;SDS011;15039;50.830;4.730;2024-01-25T14:21:16;7.05;;;3.95;;
27618;SDS011;15039;50.830;4.730;2024-01-25T14:23:45;6.95;;;4.05;;
27618;SDS011;15039;50.830;4.730;2024-01-25T14:26:11;7.97;;;3.70;;
27618;SDS011;15039;50.830;4.730;2024-01-25T14:28:37;7.63;;;4.15;;
27618;SDS011;15039;50.830;4.730;2024-01-25T14:31:03;8.98;;;4.00;;
27618;SDS011;15039;50.830;4.730;2024-01-25T14:33:29;5.38;;;4.10;;
27618;SDS011;15039;50.830;4.730;2024-01-25T14:35:54;7.50;;;4.90;;